createdAt,value
2023-02-23T00:01:22.225Z,80.27
2023-02-23T00:03:49.867Z,80.35
2023-02-23T00:06:17.858Z,80.41
2023-02-23T00:08:44.618Z,80.53
2023-02-23T00:11:14.610Z,80.40
2023-02-23T00:13:42.457Z,80.61
2023-02-23T00:16:20.353Z,80.26
2023-02-23T00:18:53.718Z,80.38
2023-02-23T00:21:26.049Z,80.00
2023-02-23T00:24:18.686Z,80.15
2023-02-23T00:26:47.891Z,80.02
2023-02-23T00:29:17.403Z,79.86
2023-02-23T00:31:50.504Z,80.12
2023-02-23T00:34:21.627Z,79.93
2023-02-23T00:36:54.668Z,79.83
2023-02-23T00:39:23.782Z,79.79
2023-02-23T00:41:52.357Z,79.73
2023-02-23T00:44:21.004Z,79.81
2023-02-23T00:46:51.772Z,80.43
2023-02-23T00:49:20.381Z,80.38
2023-02-23T00:51:47.088Z,81.53
2023-02-23T00:54:14.926Z,82.29
2023-02-23T00:56:41.682Z,82.70
2023-02-23T00:59:08.668Z,82.48
2023-02-23T01:01:35.370Z,82.35
2023-02-23T01:04:02.115Z,83.29
2023-02-23T01:06:30.240Z,84.11
2023-02-23T01:08:57.692Z,84.83
2023-02-23T01:11:27.969Z,85.20
2023-02-23T01:13:58.269Z,85.84
2023-02-23T01:16:28.045Z,85.93
2023-02-23T01:18:56.799Z,86.56
2023-02-23T01:21:25.981Z,86.81
2023-02-23T01:23:53.288Z,86.74
2023-02-23T01:26:24.965Z,86.54
2023-02-23T01:28:59.145Z,86.42
2023-02-23T01:31:26.084Z,86.26
2023-02-23T01:33:57.229Z,86.39
2023-02-23T01:36:25.592Z,86.47
2023-02-23T01:38:56.479Z,86.33
2023-02-23T01:41:24.177Z,86.25
2023-02-23T01:44:13.159Z,86.34
2023-02-23T01:46:41.486Z,86.58
2023-02-23T01:49:15.547Z,86.38
2023-02-23T01:51:51.676Z,86.66
2023-02-23T01:54:24.428Z,86.42
2023-02-23T01:56:58.257Z,86.44
2023-02-23T01:59:34.222Z,86.55
2023-02-23T02:02:01.215Z,86.90
2023-02-23T02:04:28.854Z,86.96
2023-02-23T02:07:02.004Z,86.82
2023-02-23T02:09:29.403Z,86.76
2023-02-23T02:12:02.692Z,86.81
2023-02-23T02:14:31.004Z,86.81
2023-02-23T02:17:07.553Z,87.11
2023-02-23T02:19:34.071Z,87.12
2023-02-23T02:22:14.478Z,87.07
2023-02-23T02:24:54.788Z,87.46
2023-02-23T02:27:38.509Z,87.54
2023-02-23T02:30:27.653Z,87.55
2023-02-23T02:33:34.957Z,87.68
2023-02-23T02:36:26.535Z,87.95
2023-02-23T02:39:35.051Z,88.66
2023-02-23T02:42:21.639Z,88.50
2023-02-23T02:45:15.827Z,88.44
2023-02-23T02:48:07.476Z,88.44
2023-02-23T02:50:46.592Z,88.46
2023-02-23T02:53:20.705Z,88.42
2023-02-23T02:55:48.317Z,88.63
2023-02-23T02:58:15.288Z,88.36
2023-02-23T03:01:02.090Z,88.61
2023-02-23T03:03:59.981Z,88.83
2023-02-23T03:06:52.378Z,88.69
2023-02-23T03:10:00.122Z,88.61
2023-02-23T03:12:52.476Z,88.87
2023-02-23T03:16:08.857Z,88.83
2023-02-23T03:19:43.456Z,88.85
2023-02-23T03:22:36.694Z,88.89
2023-02-23T03:25:32.068Z,88.98
2023-02-23T03:28:31.950Z,88.97
2023-02-23T03:31:32.788Z,88.76
2023-02-23T03:34:40.897Z,88.96
2023-02-23T03:37:37.262Z,88.96
2023-02-23T03:40:27.842Z,89.06
2023-02-23T03:43:15.407Z,89.25
2023-02-23T03:46:02.838Z,89.22
2023-02-23T03:48:48.723Z,89.24
2023-02-23T03:51:34.713Z,89.43
2023-02-23T03:54:26.163Z,89.41
2023-02-23T03:57:12.407Z,89.73
2023-02-23T04:00:04.556Z,90.71
2023-02-23T04:03:00.105Z,90.40
2023-02-23T04:05:45.453Z,90.18
2023-02-23T04:08:33.452Z,90.64
2023-02-23T04:11:46.541Z,90.22
2023-02-23T04:14:21.091Z,90.36
2023-02-23T04:16:48.361Z,90.51
2023-02-23T04:19:15.130Z,90.29
2023-02-23T04:21:41.785Z,90.29
2023-02-23T04:24:09.609Z,90.09
2023-02-23T04:26:36.284Z,89.90
2023-02-23T04:29:02.906Z,90.16
2023-02-23T04:31:29.592Z,89.88
2023-02-23T04:33:56.225Z,89.97
2023-02-23T04:36:24.306Z,89.99
2023-02-23T04:38:50.937Z,90.04
2023-02-23T04:41:18.149Z,90.13
2023-02-23T04:43:44.898Z,89.91
2023-02-23T04:46:11.644Z,90.03
2023-02-23T04:48:38.329Z,89.93
2023-02-23T04:51:05.066Z,90.15
2023-02-23T04:53:31.654Z,90.38
2023-02-23T04:55:58.274Z,90.17
2023-02-23T04:58:24.905Z,90.07
2023-02-23T05:00:51.533Z,90.39
2023-02-23T05:03:18.132Z,90.13
2023-02-23T05:05:45.317Z,90.20
2023-02-23T05:08:11.936Z,90.27
2023-02-23T05:10:40.274Z,90.09
2023-02-23T05:13:07.044Z,90.30
2023-02-23T05:15:33.671Z,90.36
2023-02-23T05:18:00.690Z,90.46
2023-02-23T05:20:27.747Z,91.24
2023-02-23T05:22:54.379Z,91.08
2023-02-23T05:25:21.072Z,91.19
2023-02-23T05:27:47.687Z,91.39
2023-02-23T05:30:14.447Z,91.31
2023-02-23T05:32:41.115Z,91.11
2023-02-23T05:35:10.761Z,90.90
2023-02-23T05:37:37.338Z,90.90
2023-02-23T05:40:04.860Z,90.83
2023-02-23T05:42:31.518Z,90.86
2023-02-23T05:44:58.192Z,90.89
2023-02-23T05:47:24.840Z,91.08
2023-02-23T05:49:51.487Z,91.27
2023-02-23T05:52:18.170Z,91.33
2023-02-23T05:54:45.500Z,91.29
2023-02-23T05:57:12.525Z,91.48
2023-02-23T05:59:39.106Z,91.32
2023-02-23T06:02:06.275Z,91.25
2023-02-23T06:04:33.323Z,91.14
2023-02-23T06:07:00.070Z,91.31
2023-02-23T06:09:26.729Z,91.33
2023-02-23T06:11:53.501Z,91.50
2023-02-23T06:14:20.137Z,91.90
2023-02-23T06:16:48.853Z,91.98
2023-02-23T06:19:15.716Z,91.80
2023-02-23T06:21:44.446Z,91.74
2023-02-23T06:24:12.334Z,91.56
2023-02-23T06:26:39.283Z,91.47
2023-02-23T06:29:05.920Z,91.61
2023-02-23T06:31:32.693Z,91.55
2023-02-23T06:33:59.389Z,91.39
2023-02-23T06:36:27.289Z,91.47
2023-02-23T06:38:59.762Z,91.30
2023-02-23T06:41:26.735Z,91.33
2023-02-23T06:43:53.354Z,91.40
2023-02-23T06:46:20.165Z,91.59
2023-02-23T06:48:46.991Z,91.54
2023-02-23T06:51:13.694Z,91.55
2023-02-23T06:53:40.281Z,91.50
2023-02-23T06:56:07.416Z,91.38
2023-02-23T06:58:38.637Z,91.20
2023-02-23T07:01:05.579Z,91.44
2023-02-23T07:03:32.506Z,91.17
2023-02-23T07:05:59.127Z,91.27
2023-02-23T07:08:26.102Z,91.32
2023-02-23T07:10:54.693Z,91.28
2023-02-23T07:13:22.038Z,91.36
2023-02-23T07:15:49.149Z,91.26
2023-02-23T07:18:16.412Z,91.33
2023-02-23T07:20:43.055Z,91.36
2023-02-23T07:23:09.669Z,91.52
2023-02-23T07:25:36.451Z,91.46
2023-02-23T07:28:03.030Z,91.60
2023-02-23T07:30:29.759Z,91.52
2023-02-23T07:32:56.450Z,91.24
2023-02-23T07:35:23.079Z,91.37
2023-02-23T07:37:49.668Z,91.81
2023-02-23T07:40:17.276Z,91.77
2023-02-23T07:42:44.730Z,91.93
2023-02-23T07:45:11.871Z,92.05
2023-02-23T07:47:39.520Z,91.96
2023-02-23T07:50:10.446Z,91.94
2023-02-23T07:52:38.111Z,91.58
2023-02-23T07:55:05.685Z,91.67
2023-02-23T07:57:34.932Z,91.24
2023-02-23T08:00:05.171Z,90.79
2023-02-23T08:02:39.339Z,90.61
2023-02-23T08:05:08.582Z,90.98
2023-02-23T08:07:35.242Z,90.75
2023-02-23T08:10:01.907Z,90.34
2023-02-23T08:12:28.690Z,90.22
2023-02-23T08:14:55.344Z,90.31
2023-02-23T08:17:21.995Z,90.23
2023-02-23T08:19:50.150Z,90.53
2023-02-23T08:22:17.223Z,90.43
2023-02-23T08:24:43.861Z,90.31
2023-02-23T08:27:10.651Z,90.10
2023-02-23T08:29:37.292Z,90.22
2023-02-23T08:32:04.828Z,90.45
2023-02-23T08:34:31.900Z,89.51
2023-02-23T08:36:58.656Z,89.39
2023-02-23T08:39:25.542Z,89.18
2023-02-23T08:41:56.665Z,88.83
2023-02-23T08:44:26.318Z,88.37
2023-02-23T08:46:53.967Z,88.31
2023-02-23T08:49:20.803Z,88.70
2023-02-23T08:51:47.541Z,88.81
2023-02-23T08:54:16.308Z,89.02
2023-02-23T08:56:43.516Z,88.42
2023-02-23T08:59:11.782Z,88.67
2023-02-23T09:01:38.778Z,88.56
2023-02-23T09:04:05.959Z,88.39
2023-02-23T09:06:32.943Z,88.18
2023-02-23T09:08:59.610Z,88.00
2023-02-23T09:11:26.343Z,87.63
2023-02-23T09:13:52.999Z,87.68
2023-02-23T09:16:19.663Z,86.85
2023-02-23T09:18:46.362Z,86.62
2023-02-23T09:21:25.431Z,86.56
2023-02-23T09:23:55.998Z,86.19
2023-02-23T09:26:23.467Z,85.41
2023-02-23T09:28:50.991Z,85.09
2023-02-23T09:31:22.122Z,84.68
2023-02-23T09:33:49.610Z,85.29
2023-02-23T09:36:23.044Z,85.48
2023-02-23T09:38:56.557Z,85.01
2023-02-23T09:41:26.933Z,85.44
2023-02-23T09:44:01.794Z,85.71
2023-02-23T09:46:38.445Z,85.20
2023-02-23T09:49:08.423Z,85.11
2023-02-23T09:51:38.607Z,84.65
2023-02-23T09:54:06.443Z,83.68
2023-02-23T09:56:39.031Z,83.53
2023-02-23T09:59:09.922Z,83.00
2023-02-23T10:01:49.871Z,82.30
2023-02-23T10:04:39.903Z,82.67
2023-02-23T10:07:27.016Z,83.04
2023-02-23T10:09:53.606Z,83.34
2023-02-23T10:12:29.838Z,82.58
2023-02-23T10:14:59.351Z,82.64
2023-02-23T10:17:55.641Z,80.56
2023-02-23T10:20:30.367Z,80.51
2023-02-23T10:23:03.910Z,79.92
2023-02-23T10:25:35.672Z,80.55
2023-02-23T10:28:02.886Z,80.13
2023-02-23T10:30:31.786Z,79.32
2023-02-23T10:33:14.496Z,79.39
2023-02-23T10:35:41.172Z,78.86
2023-02-23T10:38:14.628Z,76.55
2023-02-23T10:40:41.970Z,75.97
2023-02-23T10:43:11.802Z,76.48
2023-02-23T10:45:45.994Z,77.03
2023-02-23T10:48:19.566Z,76.28
2023-02-23T10:50:49.477Z,75.96
2023-02-23T10:53:35.974Z,76.52
2023-02-23T10:56:13.985Z,77.42
2023-02-23T10:58:48.731Z,76.34
2023-02-23T11:01:26.531Z,76.38
2023-02-23T11:04:05.418Z,76.55
2023-02-23T11:06:42.324Z,75.73
2023-02-23T11:09:41.193Z,75.29
2023-02-23T11:12:37.293Z,73.65
2023-02-23T11:15:35.124Z,72.95
2023-02-23T11:18:07.004Z,71.70
2023-02-23T11:20:37.082Z,71.93
2023-02-23T11:23:14.781Z,73.08
2023-02-23T11:25:43.434Z,72.84
2023-02-23T11:28:27.734Z,72.73
2023-02-23T11:30:54.594Z,71.93
2023-02-23T11:33:25.540Z,73.07
2023-02-23T11:35:59.975Z,71.23
2023-02-23T11:38:29.193Z,70.01
2023-02-23T11:41:01.552Z,69.78
2023-02-23T11:43:28.628Z,70.14
2023-02-23T11:45:58.341Z,68.05
2023-02-23T11:48:48.299Z,68.11
2023-02-23T11:51:24.272Z,69.34
2023-02-23T11:53:50.921Z,68.40
2023-02-23T11:56:25.700Z,68.77
2023-02-23T11:59:07.407Z,68.38
2023-02-23T12:01:44.713Z,66.46
2023-02-23T12:04:25.172Z,66.39
2023-02-23T12:06:52.367Z,67.98
2023-02-23T12:09:28.253Z,68.08
2023-02-23T12:12:10.118Z,69.46
2023-02-23T12:14:49.791Z,65.28
2023-02-23T12:17:21.257Z,64.21
2023-02-23T12:19:49.842Z,64.44
2023-02-23T12:22:22.700Z,62.74
2023-02-23T12:24:54.092Z,62.00
2023-02-23T12:27:31.711Z,63.25
2023-02-23T12:30:17.869Z,60.93
2023-02-23T12:33:02.820Z,62.24
2023-02-23T12:35:36.640Z,62.99
2023-02-23T12:38:12.291Z,64.15
2023-02-23T12:40:42.191Z,64.87
2023-02-23T12:43:25.513Z,63.93
2023-02-23T12:45:52.760Z,62.99
2023-02-23T12:48:34.499Z,62.34
2023-02-23T12:51:04.094Z,62.15
2023-02-23T12:53:41.645Z,62.74
2023-02-23T12:56:43.930Z,65.77
2023-02-23T12:59:31.439Z,64.46
2023-02-23T13:02:01.753Z,64.44
2023-02-23T13:04:56.437Z,65.76
2023-02-23T13:07:34.889Z,66.32
2023-02-23T13:10:15.457Z,63.94
2023-02-23T13:12:45.254Z,65.29
2023-02-23T13:15:30.155Z,66.06
2023-02-23T13:18:27.800Z,65.97
2023-02-23T13:21:00.731Z,66.97
2023-02-23T13:23:38.263Z,67.33
2023-02-23T13:26:14.727Z,67.88
2023-02-23T13:29:01.531Z,68.63
2023-02-23T13:31:39.163Z,68.00
2023-02-23T13:34:10.389Z,68.36
2023-02-23T13:36:39.328Z,68.87
2023-02-23T13:39:24.719Z,68.26
2023-02-23T13:42:17.341Z,67.82
2023-02-23T13:44:52.014Z,68.13
2023-02-23T13:47:33.162Z,68.84
2023-02-23T13:50:15.632Z,67.93
2023-02-23T13:52:45.249Z,68.36
2023-02-23T13:55:28.335Z,68.32
2023-02-23T13:58:25.917Z,67.72
2023-02-23T14:01:09.249Z,67.57
2023-02-23T14:03:54.202Z,67.56
2023-02-23T14:06:25.278Z,67.18
2023-02-23T14:09:01.317Z,66.71
2023-02-23T14:11:49.740Z,66.76
2023-02-23T14:14:37.369Z,67.04
2023-02-23T14:17:16.182Z,66.30
2023-02-23T14:19:43.499Z,65.55
2023-02-23T14:22:14.866Z,65.38
2023-02-23T14:24:41.636Z,66.33
2023-02-23T14:27:11.253Z,64.41
2023-02-23T14:30:12.990Z,65.14
2023-02-23T14:32:47.856Z,64.65
2023-02-23T14:35:32.884Z,64.70
2023-02-23T14:38:10.551Z,64.22
2023-02-23T14:40:43.023Z,64.25
2023-02-23T14:43:33.576Z,64.34
2023-02-23T14:46:01.739Z,65.38
2023-02-23T14:48:28.975Z,64.97
2023-02-23T14:51:16.482Z,65.48
2023-02-23T14:53:43.814Z,66.62
2023-02-23T14:56:22.675Z,68.03
2023-02-23T14:58:54.705Z,68.86
2023-02-23T15:01:34.267Z,69.49
2023-02-23T15:04:16.870Z,70.11
2023-02-23T15:06:47.073Z,69.74
2023-02-23T15:09:21.073Z,69.45
2023-02-23T15:11:50.170Z,68.98
2023-02-23T15:14:27.546Z,69.64
2023-02-23T15:16:56.121Z,68.88
2023-02-23T15:19:35.101Z,68.76
2023-02-23T15:22:03.637Z,68.87
2023-02-23T15:24:44.954Z,68.32
2023-02-23T15:27:23.656Z,68.53
2023-02-23T15:29:50.636Z,68.47
2023-02-23T15:32:23.655Z,68.22
2023-02-23T15:34:55.643Z,68.77
2023-02-23T15:37:37.117Z,68.02
2023-02-23T15:40:06.179Z,68.16
2023-02-23T15:42:41.588Z,68.62
2023-02-23T15:45:24.646Z,68.94
2023-02-23T15:47:55.549Z,69.62
2023-02-23T15:50:36.303Z,70.42
2023-02-23T15:53:13.555Z,70.14
2023-02-23T15:55:43.143Z,70.39
2023-02-23T15:58:32.115Z,71.11
2023-02-23T16:01:20.272Z,71.40
2023-02-23T16:03:59.620Z,71.27
2023-02-23T16:06:27.411Z,70.75
2023-02-23T16:09:05.855Z,70.54
2023-02-23T16:11:38.267Z,71.37
2023-02-23T16:14:06.851Z,71.76
2023-02-23T16:16:35.194Z,72.19
2023-02-23T16:19:02.780Z,72.39
2023-02-23T16:21:31.134Z,72.58
2023-02-23T16:23:59.467Z,72.96
2023-02-23T16:26:29.580Z,72.74
2023-02-23T16:29:01.026Z,73.16
2023-02-23T16:31:46.215Z,73.19
2023-02-23T16:34:28.178Z,72.96
2023-02-23T16:36:57.843Z,73.39
2023-02-23T16:39:29.355Z,73.69
2023-02-23T16:41:59.892Z,74.00
2023-02-23T16:44:34.251Z,74.09
2023-02-23T16:47:04.815Z,74.74
2023-02-23T16:49:34.162Z,75.07
2023-02-23T16:52:01.375Z,75.47
2023-02-23T16:54:27.989Z,75.38
2023-02-23T16:56:55.484Z,75.34
2023-02-23T16:59:23.152Z,75.80
2023-02-23T17:01:50.891Z,76.16
2023-02-23T17:04:21.368Z,76.02
2023-02-23T17:06:57.765Z,76.40
2023-02-23T17:09:25.187Z,76.59
2023-02-23T17:11:51.903Z,76.69
2023-02-23T17:14:28.117Z,77.16
2023-02-23T17:16:57.789Z,77.50
2023-02-23T17:19:25.721Z,77.59
2023-02-23T17:21:52.729Z,77.68
2023-02-23T17:24:19.377Z,77.77
2023-02-23T17:26:46.007Z,78.01
2023-02-23T17:29:13.194Z,77.92
2023-02-23T17:31:40.457Z,78.22
2023-02-23T17:34:07.199Z,78.15
2023-02-23T17:36:33.850Z,78.17
2023-02-23T17:39:00.982Z,78.18
2023-02-23T17:41:27.906Z,78.35
2023-02-23T17:43:54.762Z,78.32
2023-02-23T17:46:21.574Z,78.62
2023-02-23T17:48:48.228Z,78.70
2023-02-23T17:51:16.899Z,79.10
2023-02-23T17:53:43.999Z,79.19
2023-02-23T17:56:11.306Z,79.34
2023-02-23T17:58:37.990Z,79.83
2023-02-23T18:01:07.000Z,79.56
2023-02-23T18:03:35.812Z,79.41
2023-02-23T18:06:11.110Z,79.47
2023-02-23T18:08:39.416Z,80.10
2023-02-23T18:11:06.389Z,80.77
2023-02-23T18:13:35.866Z,81.18
2023-02-23T18:16:10.580Z,80.38
2023-02-23T18:18:42.705Z,80.75
2023-02-23T18:21:20.201Z,81.16
2023-02-23T18:23:47.592Z,82.05
2023-02-23T18:26:17.170Z,82.56
2023-02-23T18:28:45.791Z,83.10
2023-02-23T18:31:21.921Z,83.00
2023-02-23T18:33:55.362Z,83.20
2023-02-23T18:36:35.436Z,84.04
2023-02-23T18:39:04.155Z,83.68
2023-02-23T18:41:31.245Z,83.89
2023-02-23T18:44:02.272Z,84.03
2023-02-23T18:46:29.137Z,84.46
2023-02-23T18:48:56.038Z,85.52
2023-02-23T18:51:23.538Z,85.03
2023-02-23T18:53:51.727Z,85.93
2023-02-23T18:56:23.296Z,85.98
2023-02-23T18:58:51.093Z,85.86
2023-02-23T19:01:21.369Z,86.09
2023-02-23T19:03:49.398Z,86.06
2023-02-23T19:06:16.844Z,86.66
2023-02-23T19:08:44.254Z,86.49
2023-02-23T19:11:11.426Z,87.14
2023-02-23T19:13:38.244Z,86.98
2023-02-23T19:16:08.619Z,87.20
2023-02-23T19:18:36.177Z,87.50
2023-02-23T19:21:03.771Z,87.92
2023-02-23T19:23:30.776Z,88.58
2023-02-23T19:25:58.971Z,88.78
2023-02-23T19:28:27.293Z,89.25
2023-02-23T19:31:12.399Z,89.16
2023-02-23T19:33:39.389Z,88.78
2023-02-23T19:36:09.679Z,88.70
2023-02-23T19:38:36.774Z,88.45
2023-02-23T19:41:07.402Z,88.78
2023-02-23T19:43:34.421Z,88.45
2023-02-23T19:46:05.344Z,88.23
2023-02-23T19:48:35.468Z,88.31
2023-02-23T19:51:02.743Z,88.26
2023-02-23T19:53:29.958Z,88.35
2023-02-23T19:56:05.035Z,88.47
2023-02-23T19:58:32.250Z,88.36
2023-02-23T20:01:07.361Z,88.11
2023-02-23T20:03:34.259Z,87.74
2023-02-23T20:06:05.448Z,87.90
2023-02-23T20:08:32.426Z,87.73
2023-02-23T20:11:00.031Z,87.56
2023-02-23T20:13:29.286Z,87.36
2023-02-23T20:16:09.131Z,87.60
2023-02-23T20:18:38.605Z,87.61
2023-02-23T20:21:28.619Z,88.19
2023-02-23T20:23:55.995Z,87.81
2023-02-23T20:26:26.549Z,87.80
2023-02-23T20:28:54.551Z,87.90
2023-02-23T20:31:26.722Z,87.96
2023-02-23T20:33:54.925Z,88.27
2023-02-23T20:36:22.770Z,88.00
2023-02-23T20:38:49.395Z,88.03
2023-02-23T20:41:17.336Z,87.83
2023-02-23T20:43:44.159Z,87.75
2023-02-23T20:46:16.360Z,88.02
2023-02-23T20:48:43.843Z,87.93
2023-02-23T20:51:15.322Z,87.75
2023-02-23T20:53:45.322Z,87.69
2023-02-23T20:56:13.071Z,88.27
2023-02-23T20:58:40.192Z,88.29
2023-02-23T21:01:15.971Z,88.29
2023-02-23T21:03:42.674Z,88.61
2023-02-23T21:06:09.722Z,88.67
2023-02-23T21:08:39.958Z,89.12
2023-02-23T21:11:07.893Z,89.16
2023-02-23T21:13:35.510Z,89.12
2023-02-23T21:16:03.330Z,89.21
2023-02-23T21:18:30.926Z,89.59
2023-02-23T21:20:59.433Z,89.41
2023-02-23T21:23:26.260Z,89.34
2023-02-23T21:25:54.276Z,89.69
2023-02-23T21:28:21.009Z,90.02
2023-02-23T21:30:47.753Z,90.05
2023-02-23T21:33:14.807Z,89.91
2023-02-23T21:35:41.404Z,89.95
2023-02-23T21:38:08.396Z,89.64
2023-02-23T21:40:35.764Z,89.94
2023-02-23T21:43:06.660Z,90.42
2023-02-23T21:45:33.342Z,90.48
2023-02-23T21:47:59.992Z,90.31
2023-02-23T21:50:26.876Z,89.98
2023-02-23T21:52:56.096Z,89.89
2023-02-23T21:55:22.945Z,90.00
2023-02-23T21:57:50.380Z,90.19
2023-02-23T22:00:19.111Z,90.80
2023-02-23T22:02:46.784Z,90.74
2023-02-23T22:05:15.397Z,90.98
2023-02-23T22:07:47.574Z,91.17
2023-02-23T22:10:14.512Z,91.16
2023-02-23T22:12:41.112Z,91.33
2023-02-23T22:15:09.177Z,90.85
2023-02-23T22:17:36.389Z,90.94
2023-02-23T22:20:05.542Z,91.46
2023-02-23T22:22:36.188Z,91.49
2023-02-23T22:25:05.289Z,91.48
2023-02-23T22:27:32.325Z,91.01
2023-02-23T22:30:02.114Z,90.83
2023-02-23T22:32:32.942Z,90.33
2023-02-23T22:35:01.044Z,90.36
2023-02-23T22:37:31.699Z,90.08
2023-02-23T22:40:01.397Z,89.79
2023-02-23T22:42:30.599Z,89.69
2023-02-23T22:44:57.277Z,89.62
2023-02-23T22:47:24.196Z,89.39
2023-02-23T22:49:50.828Z,89.36
2023-02-23T22:52:17.514Z,89.15
2023-02-23T22:54:46.266Z,89.18
2023-02-23T22:57:13.532Z,88.87
2023-02-23T22:59:40.145Z,88.79
2023-02-23T23:02:06.827Z,88.57
2023-02-23T23:04:34.584Z,88.36
2023-02-23T23:07:01.382Z,88.35
2023-02-23T23:09:28.333Z,88.88
2023-02-23T23:11:56.780Z,89.00
2023-02-23T23:14:23.459Z,89.36
2023-02-23T23:16:50.244Z,89.70
2023-02-23T23:19:24.094Z,89.47
2023-02-23T23:21:56.036Z,89.44
2023-02-23T23:24:23.759Z,89.19
2023-02-23T23:26:55.529Z,89.19
2023-02-23T23:29:23.705Z,88.96
2023-02-23T23:31:51.735Z,88.88
2023-02-23T23:34:21.746Z,89.00
2023-02-23T23:36:49.676Z,88.96
2023-02-23T23:39:17.515Z,89.00
2023-02-23T23:41:48.079Z,89.06
2023-02-23T23:44:16.774Z,89.14
2023-02-23T23:46:44.779Z,89.21
2023-02-23T23:49:16.649Z,89.56
2023-02-23T23:51:50.168Z,89.56
2023-02-23T23:54:23.071Z,89.60
2023-02-23T23:56:50.413Z,89.34
2023-02-23T23:59:20.436Z,89.23
